Time;durP1;ratioP1;P1;durP2;ratioP2;P2;SDS_P1;SDS_P2;PMS_P1;PMS_P2;Temp;Humidity;BMP_temperature;BMP_pressure;BME280_temperature;BME280_humidity;BME280_pressure;Samples;Min_cycle;Max_cycle;Signal;HPM_P1;HPM_P2
2021/08/23 00:00:17;;;;;;;3.63;3.22;;;18.10;85.00;;;17.95;70.05;95057.91;5020059;28;20219;-81
2021/08/23 00:02:44;;;;;;;5.15;3.30;;;18.10;85.00;;;17.85;70.29;95048.66;5019505;28;20203;-81
2021/08/23 00:05:12;;;;;;;4.03;3.28;;;18.10;85.00;;;17.92;70.50;95065.25;5047770;28;20327;-81
2021/08/23 00:07:39;;;;;;;3.28;2.97;;;18.10;85.00;;;17.98;69.68;95068.03;5015894;28;20226;-80
2021/08/23 00:10:08;;;;;;;4.20;3.00;;;18.10;85.00;;;17.90;nan;95059.38;5015940;28;20664;-80
2021/08/23 00:12:36;;;;;;;5.53;3.13;;;18.00;85.00;;;17.97;70.25;95071.75;4999594;28;20207;-81
2021/08/23 00:15:08;;;;;;;3.70;2.85;;;18.10;85.00;;;17.97;70.22;95069.09;5016042;28;20310;-81
2021/08/23 00:17:36;;;;;;;3.88;3.00;;;18.10;85.20;;;17.93;70.55;95066.06;5033134;28;20274;-81
2021/08/23 00:20:07;;;;;;;3.22;2.83;;;18.10;85.00;;;17.96;70.12;95056.88;5031903;28;20255;-80
2021/08/23 00:22:47;;;;;;;3.25;2.78;;;18.10;85.20;;;17.92;70.47;95052.00;5015739;28;20231;-81
2021/08/23 00:25:16;;;;;;;3.33;3.03;;;18.10;85.10;;;17.98;69.95;95060.09;5042841;28;20208;-81
2021/08/23 00:27:43;;;;;;;2.70;2.50;;;18.10;85.10;;;17.99;70.07;95062.53;5016036;28;20277;-80
2021/08/23 00:30:15;;;;;;;3.45;3.10;;;18.10;85.10;;;17.95;70.08;95056.06;5015521;28;20223;-80
2021/08/23 00:32:43;;;;;;;3.42;2.70;;;18.10;85.20;;;18.00;69.60;95058.00;5022488;28;20564;-80
2021/08/23 00:35:10;;;;;;;3.75;2.70;;;18.10;85.00;;;18.00;69.55;95060.66;5034511;28;20215;-80
2021/08/23 00:37:38;;;;;;;3.65;3.00;;;18.10;85.00;;;17.98;70.09;95062.75;5051160;28;20560;-80
2021/08/23 00:40:07;;;;;;;3.22;2.83;;;18.10;85.00;;;17.97;69.67;95075.22;5018073;28;20703;-80
2021/08/23 00:42:34;;;;;;;3.20;2.90;;;18.10;85.00;;;17.90;70.68;95080.59;5051625;28;20274;-81
2021/08/23 00:45:01;;;;;;;3.30;3.00;;;18.20;85.10;;;17.94;70.21;95083.59;5014907;28;20220;-80
2021/08/23 00:47:28;;;;;;;3.45;2.92;;;18.10;85.00;;;17.94;70.21;95086.25;5031804;28;20246;-80
2021/08/23 00:49:56;;;;;;;3.10;2.70;;;18.10;85.00;;;17.95;70.37;95079.94;5015102;28;20216;-80
2021/08/23 00:52:24;;;;;;;3.92;2.80;;;18.10;85.10;;;17.96;70.36;95083.41;5023486;28;20207;-80
2021/08/23 00:54:51;;;;;;;3.17;2.75;;;18.10;85.20;;;17.97;70.02;95093.78;5017943;28;20219;-80
2021/08/23 00:57:20;;;;;;;4.28;3.03;;;18.10;85.20;;;17.93;69.87;95087.28;5051689;28;20206;-80
2021/08/23 00:59:48;;;;;;;3.95;2.78;;;18.10;85.20;;;17.92;70.24;95080.41;5050175;28;20203;-79
2021/08/23 01:02:34;;;;;;;3.47;2.72;;;18.10;85.20;;;18.00;69.83;95087.22;5015119;28;20282;-80
2021/08/23 01:05:08;;;;;;;3.53;2.95;;;18.10;85.40;;;18.02;69.64;95090.44;5028690;28;20701;-80
2021/08/23 01:07:55;;;;;;;4.05;2.90;;;18.10;85.20;;;18.04;69.57;95091.81;5031622;28;20642;-81
2021/08/23 01:10:31;;;;;;;3.97;3.20;;;18.10;85.20;;;18.01;69.61;95081.66;5031353;28;20631;-80
2021/08/23 01:13:00;;;;;;;2.83;2.60;;;18.10;85.20;;;18.04;69.85;95091.81;5047807;28;20249;-81
2021/08/23 01:15:27;;;;;;;3.40;3.10;;;18.10;85.00;;;18.02;70.08;95085.94;5044100;28;20219;-80
2021/08/23 01:17:55;;;;;;;3.60;3.28;;;18.10;85.00;;;18.06;70.10;95084.41;5033619;28;20721;-80
2021/08/23 01:20:23;;;;;;;3.40;3.08;;;18.10;85.10;;;18.05;69.88;95084.66;5034672;28;20227;-80
2021/08/23 01:22:54;;;;;;;3.30;2.90;;;18.10;85.10;;;18.10;69.71;95089.25;5051186;28;20195;-80
2021/08/23 01:25:29;;;;;;;3.13;2.72;;;18.20;85.40;;;18.12;70.12;95095.94;5033631;28;20223;-80
2021/08/23 01:28:07;;;;;;;3.25;2.47;;;18.10;85.60;;;18.15;69.58;95094.66;5017878;28;20613;-80
2021/08/23 01:31:00;;;;;;;2.97;2.63;;;18.20;85.40;;;18.14;69.98;95093.88;5034485;28;20295;-79
2021/08/23 01:33:27;;;;;;;4.55;3.25;;;18.20;85.50;;;18.14;70.06;95091.22;5034754;28;20203;-80
2021/08/23 01:35:55;;;;;;;3.45;2.85;;;18.20;85.20;;;18.19;70.17;95093.97;5033708;28;20587;-79
2021/08/23 01:38:22;;;;;;;3.60;2.88;;;18.30;85.30;;;18.21;69.75;95093.72;5033893;28;20190;-80
2021/08/23 01:40:59;;;;;;;3.88;3.00;;;18.30;85.30;;;18.22;69.51;95090.03;5018128;28;20227;-80
2021/08/23 01:43:27;;;;;;;3.22;2.92;;;18.30;86.30;;;18.23;69.79;95089.78;5051244;28;20278;-80
2021/08/23 01:45:54;;;;;;;4.70;3.25;;;18.30;85.30;;;18.24;69.86;95086.09;5050990;28;20626;-79
2021/08/23 01:48:21;;;;;;;3.75;2.60;;;18.30;85.20;;;18.20;69.70;95082.31;5028991;28;20295;-80
2021/08/23 01:50:49;;;;;;;3.05;2.75;;;18.40;85.30;;;18.16;69.96;95072.41;5018153;28;20244;-80
2021/08/23 01:53:17;;;;;;;2.88;2.40;;;18.30;85.20;;;18.12;69.44;95069.41;5018249;28;20281;-80
2021/08/23 01:55:45;;;;;;;5.72;3.20;;;18.40;85.30;;;18.24;69.67;95080.00;5034768;28;20401;-80
2021/08/23 01:58:14;;;;;;;3.35;3.00;;;18.30;85.10;;;18.24;69.66;95088.75;5034766;28;20304;-80
2021/08/23 02:00:41;;;;;;;3.20;2.33;;;18.30;85.20;;;18.22;69.25;95079.41;5017958;28;20227;-80
2021/08/23 02:03:09;;;;;;;3.85;2.83;;;18.30;85.00;;;18.21;69.52;95069.81;5029619;28;20200;-80
2021/08/23 02:05:37;;;;;;;3.00;2.70;;;18.40;85.00;;;18.19;69.55;95077.25;5035013;28;20230;-80
2021/08/23 02:08:05;;;;;;;3.22;2.45;;;18.40;84.90;;;18.23;70.18;95087.13;5051085;28;20630;-80
2021/08/23 02:10:32;;;;;;;3.47;2.80;;;18.30;84.80;;;18.20;69.65;95084.13;5034428;28;20255;-79
2021/08/23 02:12:59;;;;;;;3.83;2.80;;;18.40;84.90;;;18.18;70.10;95095.00;5034617;28;20238;-80
2021/08/23 02:15:27;;;;;;;3.08;2.47;;;18.30;84.80;;;18.11;69.52;95082.91;5017889;28;20282;-79
2021/08/23 02:17:54;;;;;;;2.97;2.60;;;18.40;84.90;;;18.18;69.38;95100.31;5020836;28;20278;-79
2021/08/23 02:20:22;;;;;;;2.80;2.30;;;18.30;84.90;;;18.16;70.04;95110.38;5017794;28;20281;-80
2021/08/23 02:22:49;;;;;;;4.20;2.65;;;18.30;84.80;;;18.13;70.09;95100.22;5034082;28;20631;-80
2021/08/23 02:25:22;;;;;;;2.50;2.30;;;18.30;84.70;;;18.08;69.85;95090.31;5017854;28;20302;-78
2021/08/23 02:27:54;;;;;;;2.90;2.50;;;18.30;84.60;;;18.06;69.62;95087.06;5042982;28;20204;-80
2021/08/23 02:30:22;;;;;;;3.90;2.65;;;18.30;84.60;;;18.04;69.75;95086.50;5018020;28;20220;-80
2021/08/23 02:32:50;;;;;;;2.50;2.25;;;18.30;84.60;;;18.03;70.01;95097.38;5034015;28;20199;-80
2021/08/23 02:35:18;;;;;;;2.92;2.60;;;18.30;84.70;;;18.06;69.41;95094.22;5017432;28;20259;-80
2021/08/23 02:37:45;;;;;;;4.30;2.40;;;18.30;84.70;;;18.02;69.98;95087.78;5033685;28;20246;-80
2021/08/23 02:40:13;;;;;;;2.83;2.47;;;18.30;84.60;;;17.97;69.28;95090.31;5017376;28;20307;-79
2021/08/23 02:42:41;;;;;;;3.35;2.47;;;18.20;84.60;;;17.92;69.46;95085.69;5044201;28;20226;-79
2021/08/23 02:45:09;;;;;;;4.00;3.00;;;18.10;84.40;;;17.93;69.97;95093.41;5017186;28;20589;-80
2021/08/23 02:47:36;;;;;;;5.53;2.70;;;18.10;84.30;;;17.87;69.52;95104.97;5017335;28;20200;-79
2021/08/23 02:50:09;;;;;;;3.30;2.60;;;18.20;84.30;;;17.85;69.65;95098.28;5017439;28;20265;-80
2021/08/23 02:52:37;;;;;;;6.22;2.72;;;18.10;84.20;;;17.81;70.00;95099.78;5017552;28;20275;-80
2021/08/23 02:55:05;;;;;;;2.88;2.45;;;18.10;84.30;;;17.79;69.97;95097.34;5017387;28;20215;-80
2021/08/23 02:57:32;;;;;;;3.70;2.40;;;18.00;84.20;;;17.75;70.10;95096.22;5000884;28;20676;-80
2021/08/23 03:00:00;;;;;;;2.75;2.47;;;18.00;84.20;;;17.74;70.12;95100.69;5016793;28;20302;-80
2021/08/23 03:02:28;;;;;;;2.95;2.70;;;18.00;84.20;;;17.65;69.57;95104.75;5000395;28;20305;-79
2021/08/23 03:04:56;;;;;;;2.85;2.55;;;18.00;84.30;;;17.59;69.83;95090.56;5016926;28;20309;-79
2021/08/23 03:07:23;;;;;;;4.25;2.42;;;18.00;84.30;;;17.70;69.64;95106.69;5034639;28;20200;-80
2021/08/23 03:09:50;;;;;;;2.78;2.30;;;17.90;84.30;;;17.66;69.49;95108.22;5036944;28;20187;-79
2021/08/23 03:12:17;;;;;;;3.88;2.40;;;17.90;84.30;;;17.68;69.70;95111.44;5052981;28;20214;-79
2021/08/23 03:14:45;;;;;;;2.75;2.30;;;17.90;84.30;;;17.69;69.57;95105.91;5034722;28;20245;-79
2021/08/23 03:17:12;;;;;;;4.65;2.20;;;17.90;84.30;;;17.61;69.78;95106.25;5018449;28;20641;-79
2021/08/23 03:19:39;;;;;;;2.90;2.30;;;17.80;84.20;;;17.62;69.57;95113.16;5034556;28;20209;-79
2021/08/23 03:22:06;;;;;;;3.55;2.55;;;17.80;84.20;;;17.64;69.95;95121.72;5018279;28;20227;-79
2021/08/23 03:24:33;;;;;;;3.03;2.38;;;17.80;84.20;;;17.62;69.48;95121.13;5014156;28;20302;-79
2021/08/23 03:27:00;;;;;;;2.17;1.98;;;17.80;84.20;;;17.63;69.72;95120.09;5014678;28;20291;-79
2021/08/23 03:29:27;;;;;;;2.55;2.10;;;17.90;84.30;;;17.54;69.38;95111.69;5031120;28;20204;-80
2021/08/23 03:31:54;;;;;;;2.42;2.22;;;17.80;84.30;;;17.58;69.38;95117.34;5016654;28;20255;-79
2021/08/23 03:34:22;;;;;;;3.72;2.33;;;17.80;84.30;;;17.58;69.28;95125.28;5024651;28;20188;-79
2021/08/23 03:36:49;;;;;;;2.55;2.30;;;17.80;84.20;;;17.57;69.52;95127.13;5030686;28;20215;-79
2021/08/23 03:39:16;;;;;;;2.33;2.13;;;17.80;84.10;;;17.54;69.38;95127.59;5033888;28;20185;-80
2021/08/23 03:41:44;;;;;;;4.68;2.80;;;17.70;84.00;;;17.53;69.52;95136.56;5027659;28;20326;-80
2021/08/23 03:44:11;;;;;;;2.58;2.35;;;17.80;84.80;;;17.48;69.57;95133.81;5016194;28;20558;-80
2021/08/23 03:46:38;;;;;;;2.95;2.13;;;17.70;84.00;;;17.48;69.64;95140.94;5028519;28;20657;-79
2021/08/23 03:49:05;;;;;;;2.67;2.25;;;17.70;84.00;;;17.38;69.40;95134.38;5009071;28;20189;-80
2021/08/23 03:51:33;;;;;;;2.50;2.30;;;17.70;83.90;;;17.43;69.56;95139.81;5043562;28;20207;-81
2021/08/23 03:54:00;;;;;;;2.72;2.20;;;17.70;84.00;;;17.41;69.17;95138.41;5021220;28;20619;-80
2021/08/23 03:56:28;;;;;;;3.00;2.53;;;17.60;84.00;;;17.42;69.87;95140.03;5022844;28;20277;-79
2021/08/23 03:58:55;;;;;;;2.60;2.38;;;17.70;84.20;;;17.43;69.20;95145.09;5006991;28;20287;-80
2021/08/23 04:01:22;;;;;;;3.08;2.25;;;17.60;84.10;;;17.40;69.60;95137.59;5015628;28;20255;-79
2021/08/23 04:03:50;;;;;;;3.20;2.90;;;17.60;84.10;;;17.41;69.18;95147.16;5031514;28;20200;-80
2021/08/23 04:06:17;;;;;;;2.83;2.33;;;17.60;84.10;;;17.40;69.42;95150.84;5030179;28;20223;-81
2021/08/23 04:08:45;;;;;;;3.03;2.72;;;17.50;83.80;;;17.35;68.93;95139.34;5012797;28;20192;-81
2021/08/23 04:11:13;;;;;;;3.50;2.70;;;17.60;84.00;;;17.36;69.40;95146.25;5016684;28;20278;-81
2021/08/23 04:13:42;;;;;;;3.33;2.60;;;17.50;84.00;;;17.35;69.47;95145.44;5012022;28;20287;-81
2021/08/23 04:16:18;;;;;;;2.90;2.42;;;17.50;84.10;;;17.37;69.28;95148.69;5011885;28;20314;-81
2021/08/23 04:18:45;;;;;;;7.22;3.03;;;17.50;84.20;;;17.34;69.14;95143.81;5012583;28;20230;-81
2021/08/23 04:21:12;;;;;;;4.75;2.75;;;17.50;84.30;;;17.40;69.49;95150.06;4997343;28;20224;-81
2021/08/23 04:23:39;;;;;;;4.40;2.85;;;17.50;84.20;;;17.39;69.25;95153.75;5014479;28;20648;-81
2021/08/23 04:26:06;;;;;;;3.67;2.67;;;17.50;84.20;;;17.39;69.48;95156.38;5022225;28;20234;-81
2021/08/23 04:28:35;;;;;;;5.18;3.10;;;17.50;84.20;;;17.39;69.27;95156.38;5052076;28;20224;-81
2021/08/23 04:31:03;;;;;;;4.82;2.83;;;17.60;84.20;;;17.36;69.66;95162.97;5013168;28;20224;-81
2021/08/23 04:33:31;;;;;;;3.83;3.03;;;17.60;84.90;;;17.31;69.26;95162.03;5009491;28;20665;-80
2021/08/23 04:35:58;;;;;;;3.05;2.75;;;17.60;83.90;;;17.29;69.03;95168.34;5047811;28;20244;-81
2021/08/23 04:38:25;;;;;;;5.03;3.00;;;17.50;83.80;;;17.26;69.54;95168.03;5015553;28;20204;-81
2021/08/23 04:40:52;;;;;;;3.65;2.92;;;17.50;83.80;;;17.22;69.31;95159.72;5015364;28;20220;-81
2021/08/23 04:43:20;;;;;;;2.65;2.45;;;17.50;83.80;;;17.18;69.03;95161.19;5018295;28;20226;-82
2021/08/23 04:45:47;;;;;;;3.40;2.58;;;17.40;83.70;;;17.07;69.65;95146.88;5003912;28;20303;-81
2021/08/23 04:48:14;;;;;;;3.45;2.97;;;17.50;83.80;;;17.13;69.31;95158.41;5026968;28;20203;-81
2021/08/23 04:50:41;;;;;;;3.60;2.80;;;17.40;83.70;;;17.12;69.20;95165.56;5014813;28;20707;-81
2021/08/23 04:53:08;;;;;;;3.13;2.63;;;17.40;83.70;;;17.10;69.62;95161.50;5033874;28;20200;-81
2021/08/23 04:55:35;;;;;;;3.08;2.55;;;17.30;83.70;;;16.93;68.88;95140.97;5031342;28;20694;-81
2021/08/23 04:58:02;;;;;;;3.17;2.70;;;17.40;83.70;;;16.95;69.41;95138.91;5031373;28;20196;-80
2021/08/23 05:00:30;;;;;;;3.63;2.75;;;17.30;83.50;;;16.96;69.46;95152.97;5031715;28;20584;-81
2021/08/23 05:02:57;;;;;;;12.40;3.67;;;17.40;83.60;;;16.93;69.50;95140.16;5036724;28;20221;-82
2021/08/23 05:05:24;;;;;;;3.35;2.85;;;17.20;83.50;;;16.74;69.68;95129.56;5051436;28;20710;-81
2021/08/23 05:07:52;;;;;;;3.72;2.85;;;17.20;83.50;;;16.76;69.79;95135.47;5035140;28;20233;-81
2021/08/23 05:10:19;;;;;;;2.78;2.42;;;17.20;83.50;;;16.80;69.75;95139.28;5034846;28;20219;-82
2021/08/23 05:12:47;;;;;;;4.18;2.78;;;17.20;83.50;;;16.76;69.93;95142.59;5050636;28;20199;-81
2021/08/23 05:15:14;;;;;;;3.70;2.60;;;17.10;83.60;;;16.72;69.61;95142.25;5031591;28;20222;-82
2021/08/23 05:17:41;;;;;;;2.97;2.75;;;17.10;83.70;;;16.72;69.94;95138.78;5015251;28;20200;-81
2021/08/23 05:20:08;;;;;;;3.53;2.75;;;17.00;83.70;;;16.70;69.76;95140.84;5032387;28;20674;-81
2021/08/23 05:22:39;;;;;;;4.70;2.65;;;17.00;83.90;;;16.73;69.59;95145.72;5024111;28;20219;-82
2021/08/23 05:25:07;;;;;;;3.13;2.70;;;17.00;84.00;;;16.73;70.03;95143.84;5034210;28;20219;-80
2021/08/23 05:27:35;;;;;;;5.53;2.63;;;17.00;84.10;;;16.72;70.38;95146.72;5019308;28;20199;-81
2021/08/23 05:30:06;;;;;;;3.50;2.63;;;17.00;84.10;;;16.72;69.94;95150.22;5012801;28;20215;-81
2021/08/23 05:32:33;;;;;;;3.78;2.72;;;16.90;84.10;;;16.72;70.29;95146.72;5031875;28;20203;-81
2021/08/23 05:35:00;;;;;;;2.85;2.55;;;17.00;84.20;;;16.74;70.18;95149.97;5029104;28;20226;-80
2021/08/23 05:37:28;;;;;;;3.15;2.55;;;17.00;84.30;;;16.71;69.93;95140.63;5014312;28;20277;-81
2021/08/23 05:39:54;;;;;;;3.53;2.75;;;17.00;85.10;;;16.75;70.43;95133.06;4997287;28;20219;-80
2021/08/23 05:42:22;;;;;;;3.40;2.70;;;16.90;84.30;;;16.69;70.21;95128.66;5034977;28;20302;-80
2021/08/23 05:44:53;;;;;;;3.75;2.70;;;17.00;84.30;;;16.77;69.93;95146.84;5032866;28;20302;-80
2021/08/23 05:47:24;;;;;;;3.05;2.60;;;17.00;84.30;;;16.77;70.07;95146.84;5034394;28;20299;-80
2021/08/23 05:49:52;;;;;;;3.85;2.88;;;17.00;84.10;;;16.75;70.13;95144.44;5046378;28;20246;-81
2021/08/23 05:52:20;;;;;;;2.40;2.20;;;17.00;84.10;;;16.74;70.07;95144.69;5014965;28;20200;-81
2021/08/23 05:54:47;;;;;;;4.47;2.65;;;17.00;84.20;;;16.70;70.26;95146.13;5026671;28;20184;-80
2021/08/23 05:57:14;;;;;;;3.03;2.53;;;16.90;84.30;;;16.78;70.47;95148.47;5037931;28;20237;-80
2021/08/23 05:59:42;;;;;;;3.45;2.40;;;17.10;84.50;;;16.74;70.42;95136.72;5034162;28;20210;-80
2021/08/23 06:02:09;;;;;;;4.38;2.40;;;17.00;84.50;;;16.80;70.30;95147.22;5050672;28;20223;-80
2021/08/23 06:04:36;;;;;;;5.10;2.50;;;17.00;84.40;;;16.85;70.34;95149.19;5021388;28;20670;-80
2021/08/23 06:07:06;;;;;;;2.90;2.58;;;17.00;84.60;;;16.88;69.90;95151.41;5014282;28;20262;-80
2021/08/23 06:09:34;;;;;;;3.05;2.70;;;17.00;84.40;;;16.92;70.06;95154.44;5014215;28;20200;-80
2021/08/23 06:12:03;;;;;;;4.25;2.63;;;17.00;84.40;;;16.92;70.30;95157.09;5030588;28;20263;-80
2021/08/23 06:14:30;;;;;;;3.00;2.70;;;17.10;84.50;;;16.99;70.49;95154.34;5014423;28;20191;-80
2021/08/23 06:16:58;;;;;;;3.75;2.88;;;17.20;84.60;;;17.01;70.42;95153.09;5030935;28;20271;-80
2021/08/23 06:19:25;;;;;;;3.88;3.03;;;17.20;84.70;;;17.04;70.46;95157.13;5015124;28;20189;-80
2021/08/23 06:21:52;;;;;;;3.88;3.20;;;17.10;84.50;;;16.94;70.55;95142.59;5014134;28;20232;-80
2021/08/23 06:24:22;;;;;;;4.75;3.53;;;17.30;84.70;;;17.04;70.42;95138.56;5047135;28;20583;-81
2021/08/23 06:26:49;;;;;;;3.78;3.42;;;17.20;84.60;;;17.12;70.38;95151.50;5014381;28;20617;-80
2021/08/23 06:29:16;;;;;;;4.45;3.25;;;17.20;84.70;;;17.15;70.37;95151.06;5030679;28;20202;-80
2021/08/23 06:31:46;;;;;;;3.85;3.33;;;17.30;84.80;;;17.22;70.32;95148.28;5014576;28;20230;-80
2021/08/23 06:34:13;;;;;;;4.30;3.90;;;17.30;84.80;;;17.24;70.26;95149.69;5014214;28;20287;-80
2021/08/23 06:36:42;;;;;;;3.95;3.45;;;17.40;84.80;;;17.28;70.38;95150.03;5015476;28;20689;-80
2021/08/23 06:39:09;;;;;;;4.32;3.55;;;17.50;84.80;;;17.26;70.19;95142.31;5028831;28;20188;-80
2021/08/23 06:41:36;;;;;;;3.90;3.50;;;17.50;84.70;;;17.34;70.21;95148.31;5053477;28;20250;-80
2021/08/23 06:44:04;;;;;;;4.03;3.63;;;17.50;84.60;;;17.30;70.05;95145.31;5037471;28;20195;-80
2021/08/23 06:46:31;;;;;;;4.38;3.78;;;17.50;84.50;;;17.41;69.71;95152.47;5018032;28;20310;-79
2021/08/23 06:49:00;;;;;;;4.28;3.72;;;17.60;84.40;;;17.46;69.95;95148.34;5017647;28;20189;-80
2021/08/23 06:51:28;;;;;;;4.43;4.03;;;17.60;84.20;;;17.43;69.44;95145.09;5017810;28;20382;-80
2021/08/23 06:53:55;;;;;;;5.80;4.00;;;17.60;84.20;;;17.52;70.00;95150.88;5033859;28;20327;-80
2021/08/23 06:56:22;;;;;;;4.25;3.60;;;17.60;84.30;;;17.57;69.31;95147.53;5033695;28;20624;-80
2021/08/23 06:58:49;;;;;;;5.00;4.38;;;17.70;84.10;;;17.60;69.31;95141.75;5001137;28;20196;-80
2021/08/23 07:01:17;;;;;;;5.63;4.10;;;17.70;84.20;;;17.66;69.77;95138.19;5016482;28;20230;-79
2021/08/23 07:03:46;;;;;;;4.47;3.85;;;17.70;84.20;;;17.71;69.32;95138.31;5033261;28;20255;-80
2021/08/23 07:06:13;;;;;;;4.57;3.75;;;17.80;84.30;;;17.67;69.65;95120.44;5033864;28;20212;-80
2021/08/23 07:08:45;;;;;;;5.50;3.72;;;17.90;84.20;;;17.88;69.05;95151.69;5033420;28;20196;-80
2021/08/23 07:11:12;;;;;;;4.20;3.78;;;17.90;84.20;;;17.95;69.78;95148.94;5026033;28;20702;-81
2021/08/23 07:13:41;;;;;;;4.97;4.07;;;17.90;84.20;;;18.05;69.76;95156.31;5036727;28;20268;-80
2021/08/23 07:16:08;;;;;;;4.55;3.92;;;18.00;84.30;;;18.06;69.51;95140.16;5049573;28;20214;-80
2021/08/23 07:18:37;;;;;;;4.63;4.18;;;18.10;84.40;;;18.19;69.26;95152.38;5033196;28;20275;-79
2021/08/23 07:21:04;;;;;;;4.75;4.30;;;18.10;84.30;;;18.22;68.55;95138.66;5033127;28;20308;-80
2021/08/23 07:23:31;;;;;;;5.10;4.20;;;18.30;84.20;;;18.31;69.00;95151.53;5049865;28;20781;-80
2021/08/23 07:25:59;;;;;;;4.63;4.13;;;18.30;84.00;;;18.38;68.71;95152.22;5029522;28;20211;-80
2021/08/23 07:28:27;;;;;;;5.63;4.40;;;18.40;83.90;;;18.46;68.85;95151.06;5019950;28;20269;-80
2021/08/23 07:30:57;;;;;;;4.97;3.95;;;18.40;84.00;;;18.50;68.37;95139.69;5036211;28;20218;-80
2021/08/23 07:33:24;;;;;;;4.80;4.15;;;18.50;84.00;;;18.55;68.73;95137.16;5053096;28;20257;-80
2021/08/23 07:35:51;;;;;;;5.85;4.53;;;18.50;84.10;;;18.67;68.73;95142.41;5053203;28;20211;-80
2021/08/23 07:38:19;;;;;;;4.53;4.13;;;18.60;84.20;;;18.77;68.68;95147.13;5052671;28;20657;-80
2021/08/23 07:40:46;;;;;;;5.82;4.15;;;18.70;84.20;;;18.74;68.73;95131.66;5052809;28;20207;-80
2021/08/23 07:43:14;;;;;;;5.22;4.28;;;18.70;83.90;;;18.79;68.09;95137.06;5019841;28;20318;-81
2021/08/23 07:45:41;;;;;;;5.18;4.57;;;18.90;83.70;;;18.95;67.75;95142.69;5033618;28;20293;-80
2021/08/23 07:48:09;;;;;;;4.90;4.40;;;18.90;84.40;;;19.06;67.94;95143.69;5016259;28;20676;-80
2021/08/23 07:50:36;;;;;;;6.65;4.65;;;19.00;83.70;;;19.14;67.47;95154.72;5032905;28;20216;-80
2021/08/23 07:53:03;;;;;;;5.45;4.88;;;19.00;83.40;;;19.19;66.72;95148.69;5016043;28;20287;-80
2021/08/23 07:55:31;;;;;;;5.32;4.82;;;19.20;82.90;;;19.26;65.89;95160.00;5016186;28;20224;-80
2021/08/23 07:57:59;;;;;;;6.38;5.60;;;19.20;82.10;;;19.28;65.92;95149.91;5016558;28;20478;-80
2021/08/23 08:00:26;;;;;;;6.05;5.47;;;19.20;82.30;;;19.35;66.41;95137.25;4999627;28;20628;-77
2021/08/23 08:02:54;;;;;;;7.20;5.50;;;19.20;82.30;;;19.55;66.16;95141.28;5015860;28;20222;-79
2021/08/23 08:05:21;;;;;;;6.72;5.28;;;19.30;82.40;;;19.66;66.37;95140.41;5033278;28;20235;-80
2021/08/23 08:07:48;;;;;;;5.53;5.03;;;19.40;82.30;;;19.75;65.12;95142.63;5015880;28;20643;-80
2021/08/23 08:10:16;;;;;;;5.78;5.20;;;19.60;82.00;;;19.83;65.00;95147.53;5032271;28;20220;-80
2021/08/23 08:12:44;;;;;;;6.15;5.55;;;19.60;81.60;;;19.91;64.25;95149.00;5015918;28;20284;-81
2021/08/23 08:15:12;;;;;;;5.57;4.93;;;19.70;81.50;;;20.00;64.59;95134.25;5016072;28;20216;-80
2021/08/23 08:17:39;;;;;;;5.95;5.35;;;19.80;81.60;;;20.12;66.00;95134.13;5015757;28;20227;-81
2021/08/23 08:20:09;;;;;;;5.45;4.95;;;19.90;81.70;;;20.26;65.00;95139.88;5048693;28;20220;-81
2021/08/23 08:22:37;;;;;;;5.63;5.03;;;20.00;81.70;;;20.25;63.80;95131.09;5048680;28;20610;-80
2021/08/23 08:25:06;;;;;;;5.10;4.60;;;20.10;81.10;;;20.30;64.15;95125.03;4999479;28;20220;-80
2021/08/23 08:27:34;;;;;;;6.00;5.43;;;20.10;80.90;;;20.36;64.43;95134.69;5031853;28;20692;-80
2021/08/23 08:30:06;;;;;;;5.47;4.68;;;20.10;80.90;;;20.51;64.62;95147.41;5032010;28;20270;-80
2021/08/23 08:32:34;;;;;;;5.90;4.93;;;20.30;81.50;;;20.57;63.71;95127.75;5031850;28;20184;-80
2021/08/23 08:35:03;;;;;;;5.35;4.85;;;20.30;80.60;;;20.64;63.66;95132.88;5031986;28;20212;-80
2021/08/23 08:37:30;;;;;;;5.28;4.30;;;20.30;80.50;;;20.62;62.64;95135.78;5015576;28;20726;-80
2021/08/23 08:39:57;;;;;;;32.03;6.72;;;20.40;79.90;;;20.61;62.62;95144.84;4999137;28;20216;-78
2021/08/23 08:42:24;;;;;;;6.93;4.70;;;20.50;79.40;;;20.61;62.89;95138.72;5031611;28;20303;-80
2021/08/23 08:44:52;;;;;;;4.95;4.18;;;20.50;79.60;;;20.72;63.87;95131.66;4999081;28;20208;-81
2021/08/23 08:47:19;;;;;;;6.35;5.05;;;20.50;80.30;;;20.84;63.12;95128.88;5031669;28;20284;-80
2021/08/23 08:49:47;;;;;;;5.10;4.40;;;20.60;80.00;;;20.93;63.31;95132.66;5015372;28;20201;-80
2021/08/23 08:52:15;;;;;;;5.53;4.75;;;20.60;80.10;;;21.02;62.78;95127.69;5015127;28;20677;-80
2021/08/23 08:54:44;;;;;;;4.95;4.45;;;20.70;79.80;;;21.06;62.02;95137.59;5014791;28;20291;-80
2021/08/23 08:57:12;;;;;;;6.05;4.30;;;20.70;79.20;;;21.08;62.04;95129.34;5015356;28;20533;-80
2021/08/23 08:59:39;;;;;;;4.60;4.20;;;20.80;79.10;;;21.14;62.76;95135.53;5014571;28;20193;-80
2021/08/23 09:02:06;;;;;;;5.97;4.43;;;20.90;79.30;;;21.07;61.98;95133.88;5010599;28;20196;-80
2021/08/23 09:04:39;;;;;;;5.50;4.88;;;21.00;78.80;;;21.02;61.40;95143.69;5014976;28;20253;-80
2021/08/23 09:07:10;;;;;;;5.47;4.85;;;20.90;77.50;;;20.92;61.49;95147.06;5031401;28;20292;-80
2021/08/23 09:09:38;;;;;;;4.57;4.18;;;20.90;77.60;;;20.81;61.79;95145.34;5015163;28;20207;-80
2021/08/23 09:12:12;;;;;;;4.97;4.55;;;20.90;78.00;;;20.78;62.24;95139.44;5031317;28;20698;-80
2021/08/23 09:14:55;;;;;;;5.13;4.63;;;20.90;78.10;;;20.79;63.26;95135.72;5031153;28;20200;-80
2021/08/23 09:17:26;;;;;;;8.55;5.07;;;20.90;78.20;;;20.79;62.80;95132.28;5005235;28;20616;-80
2021/08/23 09:20:03;;;;;;;5.22;4.40;;;20.80;78.00;;;20.90;63.06;95141.19;5034550;28;20755;-80
2021/08/23 09:22:31;;;;;;;4.75;3.90;;;20.80;78.20;;;20.96;63.35;95137.50;5051075;28;20669;-81
2021/08/23 09:25:11;;;;;;;5.30;4.80;;;20.80;79.20;;;21.07;63.65;95130.41;5034757;28;20207;-80
2021/08/23 09:27:38;;;;;;;5.00;4.50;;;20.90;79.30;;;21.23;63.81;95124.16;5033817;28;20203;-80
2021/08/23 09:30:07;;;;;;;5.05;4.55;;;21.00;80.00;;;21.46;63.70;95124.88;5052614;28;20779;-79
2021/08/23 09:32:50;;;;;;;5.03;4.53;;;21.10;80.30;;;21.70;63.17;95127.19;5052331;28;20180;-80
2021/08/23 09:35:38;;;;;;;4.80;4.30;;;21.20;79.60;;;21.87;63.20;95114.50;5025520;28;20238;-79
2021/08/23 09:38:10;;;;;;;5.57;4.75;;;21.40;80.10;;;22.15;63.13;95131.19;5031050;28;20189;-80
2021/08/23 09:40:37;;;;;;;6.38;4.68;;;21.50;79.80;;;22.21;61.49;95132.81;5031109;28;20248;-80
2021/08/23 09:43:11;;;;;;;4.85;4.35;;;21.60;79.00;;;22.17;61.63;95131.75;5030893;28;20222;-80
2021/08/23 09:45:47;;;;;;;5.18;4.55;;;21.80;78.70;;;22.06;61.33;95125.53;5018939;28;20583;-80
2021/08/23 09:48:15;;;;;;;4.82;4.32;;;21.80;78.30;;;21.97;61.42;95127.13;5030980;28;20213;-81
2021/08/23 09:50:49;;;;;;;4.57;4.18;;;21.80;78.00;;;21.90;61.84;95123.88;5014453;28;20214;-81
2021/08/23 09:53:21;;;;;;;4.97;4.47;;;21.80;77.80;;;21.81;61.77;95120.84;5032777;28;20239;-80
2021/08/23 09:55:51;;;;;;;4.93;4.43;;;21.80;77.40;;;21.77;61.09;95121.66;5050980;28;20734;-80
2021/08/23 09:58:18;;;;;;;6.05;4.35;;;21.80;77.00;;;21.68;61.12;95122.13;5034474;28;20260;-80
2021/08/23 10:00:45;;;;;;;5.45;4.40;;;21.70;77.10;;;21.63;61.69;95127.44;5033940;28;20678;-80
2021/08/23 10:03:22;;;;;;;5.05;4.65;;;21.60;77.50;;;21.69;61.89;95114.91;5033033;28;20275;-80
2021/08/23 10:05:59;;;;;;;4.95;4.13;;;21.60;77.00;;;21.78;61.87;95118.72;5033975;28;20211;-81
2021/08/23 10:08:29;;;;;;;5.13;4.63;;;21.60;78.20;;;21.88;61.68;95112.63;5032705;28;20190;-80
2021/08/23 10:10:56;;;;;;;4.70;4.25;;;21.60;78.00;;;21.98;62.15;95110.00;5034613;28;20220;-80
2021/08/23 10:13:24;;;;;;;6.00;4.07;;;21.60;78.30;;;22.15;62.29;95109.81;5036745;28;20190;-81
2021/08/23 10:15:51;;;;;;;4.30;3.90;;;21.70;78.40;;;22.30;61.67;95097.59;5036537;28;20311;-80
2021/08/23 10:18:21;;;;;;;4.05;3.60;;;21.80;78.50;;;22.53;61.25;95101.72;5002939;28;20203;-80
2021/08/23 10:20:48;;;;;;;3.65;3.35;;;21.90;77.90;;;22.73;61.60;95095.63;5018028;28;20273;-79
2021/08/23 10:23:16;;;;;;;3.88;3.47;;;22.00;78.70;;;22.96;61.51;95088.16;5037620;28;20225;-81
2021/08/23 10:25:46;;;;;;;3.65;3.35;;;22.20;78.90;;;23.21;61.34;95086.63;5037889;28;20220;-80